Time;durP1;ratioP1;P1;durP2;ratioP2;P2;SDS_P1;SDS_P2;PMS_P1;PMS_P2;Temp;Humidity;BMP_temperature;BMP_pressure;BME280_temperature;BME280_humidity;BME280_pressure;Samples;Min_cycle;Max_cycle;Signal;HPM_P1;HPM_P2
2021/12/27 00:01:15;;;;;;;33.42;2.83;;;;;;;;;;5013169;28;20216;-80
2021/12/27 00:03:41;;;;;;;23.15;2.28;;;;;;;;;;5012002;28;20177;-79
2021/12/27 00:06:09;;;;;;;54.15;4.00;;;;;;;;;;5012643;28;20172;-78
2021/12/27 00:08:41;;;;;;;24.08;3.08;;;;;;;;;;5012872;28;20355;-77
2021/12/27 00:11:07;;;;;;;40.63;3.35;;;;;;;;;;5012860;28;20197;-76
2021/12/27 00:13:34;;;;;;;22.70;2.60;;;;;;;;;;5013173;28;20195;-77
2021/12/27 00:16:00;;;;;;;55.90;3.97;;;;;;;;;;5012489;28;20210;-78
2021/12/27 00:18:26;;;;;;;26.98;2.33;;;;;;;;;;5013024;28;20673;-77
2021/12/27 00:20:52;;;;;;;26.47;3.30;;;;;;;;;;5012005;28;20180;-78
2021/12/27 00:23:18;;;;;;;31.30;2.80;;;;;;;;;;5012817;28;20400;-78
2021/12/27 00:25:44;;;;;;;32.38;3.25;;;;;;;;;;5012761;28;20823;-79
2021/12/27 00:28:10;;;;;;;22.60;4.55;;;;;;;;;;5012605;28;20203;-79
2021/12/27 00:30:38;;;;;;;16.87;2.30;;;;;;;;;;5012972;28;20235;-77
2021/12/27 00:33:04;;;;;;;29.73;2.65;;;;;;;;;;5012687;28;20416;-77
2021/12/27 00:35:32;;;;;;;28.45;3.50;;;10.60;63.90;;;;;;5012744;28;20192;-77
2021/12/27 00:37:58;;;;;;;50.55;3.70;;;;;;;;;;5012054;28;20284;-77
2021/12/27 00:40:25;;;;;;;24.70;4.40;;;10.80;62.00;;;;;;5090129;23;20316;-73
2021/12/27 00:42:51;;;;;;;11.50;3.05;;;10.70;62.20;;;;;;4991806;28;20260;-73
2021/12/27 00:45:18;;;;;;;12.07;2.73;;;10.70;63.30;;;;;;4992573;28;20586;-73
2021/12/27 00:47:44;;;;;;;12.15;2.67;;;11.00;61.40;;;;;;4992630;28;20188;-73
2021/12/27 00:50:10;;;;;;;14.23;2.67;;;10.90;61.00;;;;;;4992411;28;20663;-73
2021/12/27 00:52:36;;;;;;;12.95;2.92;;;11.00;61.60;;;;;;4992706;28;20553;-73
2021/12/27 00:55:05;;;;;;;11.27;2.50;;;11.00;62.20;;;;;;4992607;28;20343;-73
2021/12/27 00:57:30;;;;;;;7.97;2.00;;;11.20;60.40;;;;;;4992384;28;20413;-75
2021/12/27 00:59:56;;;;;;;8.53;1.97;;;11.00;61.00;;;;;;4992667;28;20194;-73
2021/12/27 01:02:22;;;;;;;12.87;2.60;;;10.90;62.80;;;;;;4992317;28;20641;-73
2021/12/27 01:04:47;;;;;;;12.83;2.57;;;10.80;63.00;;;;;;4992393;28;20189;-74
2021/12/27 01:07:13;;;;;;;10.57;2.07;;;11.10;60.00;;;;;;4992524;28;20265;-73
2021/12/27 01:15:08;;;;;;;12.77;2.50;;;10.90;59.50;;;;;;4992323;28;20356;-73
2021/12/27 01:17:39;;;;;;;9.82;2.20;;;10.70;60.20;;;;;;4992098;28;20232;-73
2021/12/27 01:20:08;;;;;;;12.10;2.40;;;10.60;61.20;;;;;;4992252;28;20200;-73
2021/12/27 01:22:34;;;;;;;7.07;1.65;;;10.60;61.60;;;;;;4992250;28;20176;-73
2021/12/27 01:25:00;;;;;;;10.90;2.27;;;11.10;57.80;;;;;;4992308;28;20186;-75
2021/12/27 01:27:26;;;;;;;12.87;2.80;;;11.30;55.00;;;;;;4992434;28;20174;-73
2021/12/27 01:29:52;;;;;;;11.10;1.95;;;10.80;56.70;;;;;;4991932;28;20182;-73
2021/12/27 01:32:18;;;;;;;11.73;2.47;;;10.70;57.50;;;;;;4991982;28;20175;-74
2021/12/27 01:34:44;;;;;;;12.70;2.58;;;10.70;58.00;;;;;;4992227;28;20179;-73
2021/12/27 01:37:09;;;;;;;11.40;2.23;;;11.00;56.70;;;;;;4991814;28;20299;-73
2021/12/27 01:39:35;;;;;;;12.07;2.73;;;10.80;56.10;;;;;;4992269;28;20263;-73
2021/12/27 01:42:01;;;;;;;12.47;2.40;;;10.90;55.80;;;;;;4991828;28;20191;-73
2021/12/27 01:44:26;;;;;;;7.83;2.37;;;10.80;55.20;;;;;;4991989;28;20176;-73
2021/12/27 01:46:53;;;;;;;11.03;2.23;;;10.90;55.00;;;;;;4991849;28;20170;-74
2021/12/27 01:49:19;;;;;;;12.32;3.35;;;10.90;55.40;;;;;;4992010;28;20184;-73
2021/12/27 01:51:45;;;;;;;9.48;1.90;;;10.50;55.60;;;;;;4992025;28;20195;-74
2021/12/27 01:54:10;;;;;;;14.03;2.60;;;10.50;55.20;;;;;;4991998;28;20576;-73
2021/12/27 01:56:37;;;;;;;10.23;2.03;;;10.50;55.80;;;;;;4991479;28;20602;-73
2021/12/27 01:59:03;;;;;;;14.48;3.00;;;10.90;54.70;;;;;;4991808;28;20224;-73
2021/12/27 02:01:29;;;;;;;11.45;2.75;;;11.00;53.70;;;;;;4991923;28;20202;-73
2021/12/27 02:03:55;;;;;;;10.73;2.07;;;11.20;53.70;;;;;;4991901;28;20166;-74
2021/12/27 02:06:22;;;;;;;7.32;1.83;;;11.20;52.90;;;;;;4991761;28;20174;-73
2021/12/27 02:08:48;;;;;;;11.23;2.13;;;11.00;53.20;;;;;;4991989;28;20183;-73
2021/12/27 02:11:17;;;;;;;11.88;2.40;;;11.00;54.10;;;;;;4991732;28;20195;-73
2021/12/27 02:13:44;;;;;;;11.02;2.13;;;11.00;53.70;;;;;;4991563;28;20182;-74
2021/12/27 02:16:12;;;;;;;15.60;2.97;;;10.90;54.00;;;;;;4991379;28;20201;-73
2021/12/27 02:18:39;;;;;;;8.55;2.10;;;10.90;54.20;;;;;;4991865;28;20688;-73
2021/12/27 02:21:05;;;;;;;11.30;2.20;;;10.50;56.80;;;;;;4991725;28;20298;-74
2021/12/27 02:23:31;;;;;;;12.80;2.15;;;10.10;60.50;;;;;;4991627;28;20176;-73
2021/12/27 02:25:56;;;;;;;12.93;3.27;;;9.80;65.20;;;;;;4991356;28;20180;-73
2021/12/27 02:28:22;;;;;;;10.23;1.83;;;10.00;63.60;;;;;;4991667;28;20178;-73
2021/12/27 02:30:52;;;;;;;11.47;2.37;;;10.40;60.50;;;;;;4991654;28;20258;-73
2021/12/27 02:33:17;;;;;;;10.18;2.42;;;10.60;58.80;;;;;;4991673;28;20261;-73
2021/12/27 02:35:47;;;;;;;12.63;2.30;;;10.70;58.70;;;;;;5006496;28;20303;-73
2021/12/27 02:38:19;;;;;;;13.10;2.60;;;10.70;58.00;;;;;;4991372;28;20253;-73
2021/12/27 02:40:46;;;;;;;11.88;2.45;;;10.70;57.70;;;;;;4991382;28;20475;-74
2021/12/27 02:43:17;;;;;;;13.43;2.53;;;10.90;57.20;;;;;;4992721;28;20201;-73
2021/12/27 02:45:49;;;;;;;13.15;2.40;;;11.30;55.00;;;;;;4995239;28;20178;-73
2021/12/27 02:48:18;;;;;;;15.63;3.25;;;11.10;55.20;;;;;;4994659;28;20170;-73
2021/12/27 02:50:46;;;;;;;10.15;1.92;;;11.10;55.30;;;;;;4995013;28;20254;-73
2021/12/27 02:53:13;;;;;;;12.68;2.20;;;11.30;54.20;;;;;;4994840;28;20185;-75
2021/12/27 02:55:39;;;;;;;9.98;2.05;;;11.50;53.30;;;;;;4994875;28;20247;-73
2021/12/27 02:58:05;;;;;;;14.95;3.10;;;11.40;53.40;;;;;;4994457;28;20729;-73
2021/12/27 03:00:38;;;;;;;11.50;2.10;;;11.40;54.50;;;;;;4994842;28;20198;-73
2021/12/27 03:03:04;;;;;;;10.65;2.25;;;11.10;54.50;;;;;;4994814;28;20202;-73
2021/12/27 03:05:30;;;;;;;11.60;2.20;;;11.00;54.90;;;;;;4994760;28;20596;-75
2021/12/27 03:07:56;;;;;;;10.68;1.95;;;11.10;55.30;;;;;;4994351;28;20421;-73
2021/12/27 03:10:28;;;;;;;12.55;2.05;;;11.10;55.00;;;;;;4994594;28;20207;-73
2021/12/27 03:12:55;;;;;;;12.40;2.35;;;11.40;53.20;;;;;;4994722;28;20175;-73
2021/12/27 03:15:23;;;;;;;11.70;2.05;;;11.60;52.70;;;;;;4994509;28;20251;-73
2021/12/27 03:17:50;;;;;;;9.63;1.70;;;11.60;52.50;;;;;;4994271;28;20173;-73
2021/12/27 03:20:18;;;;;;;13.38;2.40;;;11.30;53.70;;;;;;4994088;28;20616;-73
2021/12/27 03:22:43;;;;;;;11.00;2.03;;;11.20;54.40;;;;;;4994462;28;20173;-73
2021/12/27 03:25:15;;;;;;;8.03;1.73;;;11.40;53.80;;;;;;4994301;28;20235;-73
2021/12/27 03:27:41;;;;;;;7.97;1.60;;;11.20;54.70;;;;;;4994230;28;20220;-74
2021/12/27 03:30:11;;;;;;;9.90;1.75;;;11.20;55.00;;;;;;4994193;28;20308;-73
2021/12/27 03:32:37;;;;;;;10.30;1.60;;;11.60;53.60;;;;;;4994628;28;20184;-73
2021/12/27 03:35:10;;;;;;;11.23;1.90;;;11.60;52.80;;;;;;4993931;28;20181;-73
2021/12/27 03:37:38;;;;;;;9.90;1.70;;;11.30;54.40;;;;;;4994004;28;20165;-72
2021/12/27 03:40:06;;;;;;;12.55;2.35;;;11.40;54.10;;;;;;4993867;28;20198;-73
2021/12/27 03:42:32;;;;;;;7.20;1.70;;;11.30;53.80;;;;;;4994170;28;20217;-73
2021/12/27 03:44:58;;;;;;;8.02;2.42;;;11.30;53.70;;;;;;4994068;28;20267;-73
2021/12/27 03:47:23;;;;;;;12.43;2.57;;;11.30;53.00;;;;;;4993430;28;20249;-73
2021/12/27 03:49:49;;;;;;;11.13;2.23;;;11.20;53.70;;;;;;4993911;28;20172;-73
2021/12/27 03:52:15;;;;;;;10.90;1.80;;;11.20;54.50;;;;;;4993966;28;20180;-74
2021/12/27 03:54:41;;;;;;;5.73;1.30;;;11.30;54.00;;;;;;4993869;28;20653;-73
2021/12/27 03:57:06;;;;;;;10.93;1.93;;;11.20;54.70;;;;;;4993171;28;20204;-72
2021/12/27 04:02:10;;;;;;;11.60;2.22;;;11.30;53.30;;;;;;4993696;28;20552;-73
2021/12/27 04:04:36;;;;;;;12.57;3.35;;;10.80;55.00;;;;;;4993624;28;20271;-73
2021/12/27 04:07:03;;;;;;;11.60;2.20;;;10.40;56.80;;;;;;4993104;28;20180;-73
2021/12/27 04:09:28;;;;;;;12.18;2.67;;;10.40;57.20;;;;;;4992469;28;20267;-73
2021/12/27 04:11:54;;;;;;;12.40;2.80;;;10.50;56.70;;;;;;4993495;28;20620;-73
2021/12/27 04:14:21;;;;;;;11.15;2.92;;;10.50;56.50;;;;;;4993432;28;20651;-73
2021/12/27 04:16:47;;;;;;;10.80;2.22;;;10.60;56.00;;;;;;4992951;28;20220;-73
2021/12/27 04:19:13;;;;;;;10.83;2.30;;;10.50;55.50;;;;;;4993268;28;20283;-73
2021/12/27 04:21:39;;;;;;;13.50;2.42;;;10.60;55.40;;;;;;4992064;28;20189;-73
2021/12/27 04:24:05;;;;;;;11.75;2.35;;;10.80;53.50;;;;;;4993026;28;20261;-73
2021/12/27 04:26:31;;;;;;;12.32;2.35;;;10.60;54.10;;;;;;4993088;28;20181;-73
2021/12/27 04:28:57;;;;;;;13.73;3.00;;;10.60;54.20;;;;;;4993113;28;20185;-73
2021/12/27 04:31:23;;;;;;;10.47;2.13;;;10.80;53.30;;;;;;4993165;28;20234;-73
2021/12/27 04:33:48;;;;;;;9.77;1.97;;;10.80;52.80;;;;;;4993192;28;20174;-73
2021/12/27 04:36:14;;;;;;;16.93;2.80;;;11.10;52.10;;;;;;4992727;28;20292;-73
2021/12/27 04:38:42;;;;;;;10.53;2.07;;;11.20;51.90;;;;;;4992959;28;20182;-73
2021/12/27 04:41:13;;;;;;;11.80;2.15;;;11.40;50.80;;;;;;4992716;28;20206;-73
2021/12/27 04:43:39;;;;;;;10.93;1.85;;;11.60;50.10;;;;;;4991637;28;20176;-73
2021/12/27 04:46:05;;;;;;;17.40;3.67;;;11.40;50.60;;;;;;4992309;28;20186;-73
2021/12/27 04:48:31;;;;;;;9.97;1.80;;;11.30;50.70;;;;;;4992920;28;20789;-73
2021/12/27 04:50:57;;;;;;;13.03;2.53;;;11.00;52.00;;;;;;4992694;28;20197;-74
2021/12/27 04:53:23;;;;;;;15.15;2.30;;;10.80;52.80;;;;;;4992775;28;20416;-73
2021/12/27 04:55:49;;;;;;;12.97;2.70;;;10.50;54.60;;;;;;4992640;28;20203;-73
2021/12/27 04:58:17;;;;;;;13.60;2.53;;;10.30;54.60;;;;;;4992177;28;20419;-73
2021/12/27 05:00:43;;;;;;;17.88;2.30;;;10.40;54.80;;;;;;4992666;28;20677;-73
2021/12/27 05:03:09;;;;;;;15.30;2.78;;;10.60;54.50;;;;;;4992554;28;20650;-74
2021/12/27 05:05:37;;;;;;;8.97;2.00;;;10.70;53.50;;;;;;4992192;28;20188;-73
2021/12/27 05:08:03;;;;;;;12.45;2.30;;;10.60;53.40;;;;;;4992265;28;20411;-73
2021/12/27 05:10:30;;;;;;;11.70;2.40;;;10.90;53.40;;;;;;4992414;28;20230;-73
2021/12/27 05:12:55;;;;;;;12.27;2.17;;;10.90;52.40;;;;;;4992445;28;20642;-74
2021/12/27 05:15:21;;;;;;;16.10;3.10;;;10.80;52.80;;;;;;4992406;28;20193;-73
2021/12/27 05:17:47;;;;;;;10.83;1.93;;;10.60;53.10;;;;;;4992155;28;20179;-73
2021/12/27 05:20:13;;;;;;;13.73;2.40;;;10.60;53.40;;;;;;4992274;28;20200;-73
2021/12/27 05:22:40;;;;;;;12.00;2.13;;;10.40;54.50;;;;;;4992377;28;20519;-73
2021/12/27 05:25:08;;;;;;;10.40;1.95;;;10.40;55.40;;;;;;4992008;28;20176;-74
2021/12/27 05:27:34;;;;;;;13.00;2.30;;;10.40;54.90;;;;;;4992013;28;20176;-73
2021/12/27 05:29:59;;;;;;;12.00;2.20;;;10.30;55.00;;;;;;4992232;28;20196;-74
2021/12/27 05:32:25;;;;;;;12.40;2.23;;;10.40;54.30;;;;;;4992194;28;20181;-73
2021/12/27 05:34:51;;;;;;;15.07;2.47;;;10.60;53.70;;;;;;4992193;28;20174;-73
2021/12/27 05:37:16;;;;;;;8.90;1.80;;;10.90;52.30;;;;;;4991591;28;20195;-73
2021/12/27 05:39:42;;;;;;;10.30;2.00;;;10.90;52.50;;;;;;4992128;28;20682;-75
2021/12/27 05:42:08;;;;;;;7.93;1.70;;;11.60;52.20;;;;;;4991940;28;20682;-73
2021/12/27 05:44:34;;;;;;;9.85;1.63;;;11.30;50.80;;;;;;5007208;28;20177;-74
2021/12/27 05:47:00;;;;;;;8.13;2.00;;;11.40;49.90;;;;;;4991833;28;20245;-73
2021/12/27 05:49:26;;;;;;;11.27;1.80;;;11.40;49.90;;;;;;4991840;28;20419;-73
2021/12/27 05:51:52;;;;;;;10.87;1.73;;;11.20;50.00;;;;;;4991931;28;20244;-73
2021/12/27 05:54:20;;;;;;;11.73;2.13;;;10.70;51.00;;;;;;4992035;28;20509;-73
2021/12/27 05:56:47;;;;;;;11.25;1.98;;;10.60;51.70;;;;;;4991657;28;20200;-73
2021/12/27 05:59:15;;;;;;;10.43;1.90;;;10.60;51.80;;;;;;4994082;28;20179;-73
2021/12/27 06:01:41;;;;;;;12.52;1.98;;;10.70;51.30;;;;;;4991941;28;20198;-73
2021/12/27 06:04:07;;;;;;;12.23;2.23;;;10.40;52.40;;;;;;4991432;28;20262;-73
2021/12/27 06:06:33;;;;;;;7.30;1.52;;;10.40;52.70;;;;;;4997531;28;20188;-74
2021/12/27 06:08:58;;;;;;;10.20;1.83;;;10.70;52.00;;;;;;5011159;28;20177;-73
2021/12/27 06:11:24;;;;;;;10.10;1.73;;;10.80;51.30;;;;;;5011380;28;20198;-73
2021/12/27 06:13:50;;;;;;;8.50;1.60;;;10.60;51.70;;;;;;5011049;28;20177;-74
2021/12/27 06:16:16;;;;;;;10.67;1.93;;;10.80;50.70;;;;;;4995527;28;20198;-73
2021/12/27 06:18:41;;;;;;;15.23;2.15;;;10.80;49.60;;;;;;4993669;28;20540;-73
2021/12/27 06:21:07;;;;;;;13.00;1.93;;;10.40;50.90;;;;;;4995379;28;20289;-73
2021/12/27 06:23:33;;;;;;;10.93;2.00;;;10.40;50.90;;;;;;4995250;28;20257;-73
2021/12/27 06:25:59;;;;;;;18.73;2.90;;;10.30;51.70;;;;;;4995138;28;20179;-73
2021/12/27 06:28:27;;;;;;;14.37;2.30;;;10.30;52.20;;;;;;4995386;28;20232;-73
2021/12/27 06:30:53;;;;;;;12.68;2.08;;;10.40;52.20;;;;;;4995353;28;20194;-73
2021/12/27 06:33:19;;;;;;;14.23;2.23;;;10.20;52.90;;;;;;5010409;28;20292;-73
2021/12/27 06:35:44;;;;;;;11.03;1.77;;;10.40;52.90;;;;;;5014765;28;20451;-73
2021/12/27 06:38:10;;;;;;;11.70;2.20;;;10.40;52.40;;;;;;5014447;28;20170;-73
2021/12/27 06:40:36;;;;;;;18.03;2.60;;;10.50;51.60;;;;;;5014738;28;20205;-73
2021/12/27 06:43:02;;;;;;;13.17;2.00;;;10.30;52.40;;;;;;5014500;28;20201;-72
2021/12/27 06:45:28;;;;;;;10.37;2.10;;;10.10;54.20;;;;;;5014928;28;20644;-74
2021/12/27 06:47:54;;;;;;;14.48;2.13;;;10.20;53.90;;;;;;5014502;28;20772;-74
2021/12/27 06:50:21;;;;;;;10.00;2.00;;;10.50;52.60;;;;;;5015170;28;20302;-74
2021/12/27 06:52:47;;;;;;;12.75;2.10;;;10.60;51.90;;;;;;5014561;28;20413;-74
2021/12/27 06:55:13;;;;;;;12.43;2.20;;;10.60;51.80;;;;;;5014454;28;20184;-72
2021/12/27 06:57:39;;;;;;;10.40;1.73;;;10.30;53.50;;;;;;5014443;28;20544;-72
2021/12/27 07:00:10;;;;;;;8.35;1.63;;;10.50;53.80;;;;;;5014160;28;20276;-73
2021/12/27 07:02:36;;;;;;;7.65;1.50;;;10.30;53.40;;;;;;5014424;28;20164;-75
2021/12/27 07:05:03;;;;;;;7.00;1.53;;;10.50;52.70;;;;;;5014214;28;20256;-73
2021/12/27 07:07:29;;;;;;;10.45;1.98;;;10.40;52.90;;;;;;4998324;28;20181;-73
2021/12/27 07:09:54;;;;;;;11.73;1.90;;;10.30;52.80;;;;;;5009215;28;20214;-74
2021/12/27 07:12:20;;;;;;;11.80;2.17;;;10.20;53.40;;;;;;4994788;28;20567;-73
2021/12/27 07:14:48;;;;;;;10.23;1.70;;;9.80;56.60;;;;;;4994486;28;20170;-73
2021/12/27 07:17:14;;;;;;;14.02;2.42;;;9.30;57.60;;;;;;4994344;28;20193;-73
2021/12/27 07:19:40;;;;;;;13.70;2.60;;;8.60;60.50;;;;;;4994217;28;20181;-73
2021/12/27 07:22:06;;;;;;;13.85;2.88;;;8.40;61.60;;;;;;4994303;28;20173;-73
2021/12/27 07:24:32;;;;;;;13.33;2.80;;;7.40;57.20;;;;;;4994259;28;20178;-73
2021/12/27 07:26:58;;;;;;;9.30;2.10;;;9.00;55.80;;;;;;5009332;28;20449;-73
2021/12/27 07:29:23;;;;;;;12.83;2.67;;;9.10;54.50;;;;;;4993855;28;20177;-73
2021/12/27 07:31:49;;;;;;;14.30;3.30;;;8.30;61.40;;;;;;4994590;28;20202;-72
2021/12/27 07:34:19;;;;;;;14.02;2.00;;;6.80;71.30;;;;;;4994125;28;20540;-73
2021/12/27 07:36:47;;;;;;;12.63;2.33;;;6.70;74.60;;;;;;4994128;28;20194;-74
2021/12/27 07:39:13;;;;;;;7.90;1.60;;;6.30;82.50;;;;;;4994449;28;20205;-73
2021/12/27 07:41:40;;;;;;;9.95;2.42;;;6.60;81.00;;;;;;4994520;28;20221;-73
2021/12/27 07:44:06;;;;;;;8.68;1.80;;;7.30;73.60;;;;;;4994327;28;20637;-73
2021/12/27 07:46:32;;;;;;;10.50;2.40;;;7.50;70.80;;;;;;4994931;28;20329;-74
2021/12/27 07:48:58;;;;;;;8.93;1.70;;;7.70;69.70;;;;;;4994172;28;20232;-74
2021/12/27 07:51:23;;;;;;;8.27;1.50;;;8.10;64.70;;;;;;4994226;28;20700;-73
2021/12/27 07:53:50;;;;;;;8.10;2.10;;;8.50;61.50;;;;;;4994315;28;20260;-74
2021/12/27 07:56:16;;;;;;;8.02;1.83;;;8.70;59.10;;;;;;4994085;28;20232;-73
2021/12/27 07:58:42;;;;;;;8.13;2.13;;;8.80;57.80;;;;;;5009855;28;20205;-74
2021/12/27 08:01:08;;;;;;;10.15;1.95;;;8.80;57.20;;;;;;4994048;28;20201;-74
2021/12/27 08:03:34;;;;;;;7.70;1.60;;;9.10;55.40;;;;;;4993998;28;20203;-74
2021/12/27 08:06:00;;;;;;;8.67;1.77;;;9.00;54.70;;;;;;4997271;28;20427;-74
2021/12/27 08:08:26;;;;;;;9.53;1.87;;;9.10;54.50;;;;;;5013542;28;20472;-74
2021/12/27 08:10:52;;;;;;;7.75;1.60;;;9.10;53.90;;;;;;5013808;28;20531;-74
2021/12/27 08:13:18;;;;;;;9.75;1.80;;;9.10;53.90;;;;;;5013629;28;20185;-73
2021/12/27 08:15:44;;;;;;;7.80;2.10;;;9.10;54.20;;;;;;5013520;28;20202;-74
2021/12/27 08:18:10;;;;;;;14.90;2.80;;;9.20;54.40;;;;;;5012759;28;20920;-73
2021/12/27 08:20:36;;;;;;;8.85;1.67;;;5.40;51.00;;;;;;5013783;28;20216;-74
2021/12/27 08:23:02;;;;;;;9.73;2.67;;;9.30;54.30;;;;;;5014010;28;20260;-74
2021/12/27 08:25:28;;;;;;;6.97;1.48;;;9.50;54.20;;;;;;5012621;28;20419;-74
2021/12/27 08:27:55;;;;;;;11.43;2.20;;;9.60;54.90;;;;;;5013218;28;20200;-74
2021/12/27 08:30:21;;;;;;;7.35;1.80;;;9.50;55.20;;;;;;5014091;28;20197;-74
2021/12/27 08:32:48;;;;;;;9.70;1.92;;;9.40;55.10;;;;;;5013065;28;20591;-75
2021/12/27 08:35:16;;;;;;;9.13;2.20;;;9.20;55.30;;;;;;5012875;28;20255;-74
2021/12/27 08:37:43;;;;;;;6.75;1.63;;;8.90;56.00;;;;;;5013123;28;20562;-74
2021/12/27 08:40:10;;;;;;;6.40;1.88;;;8.80;57.60;;;;;;5012271;28;20727;-74
2021/12/27 08:42:37;;;;;;;8.15;1.98;;;8.90;56.60;;;;;;5012976;28;20192;-74
2021/12/27 08:45:04;;;;;;;8.55;1.80;;;9.10;55.80;;;;;;5012650;28;20252;-74
2021/12/27 08:47:31;;;;;;;9.07;2.05;;;9.20;55.70;;;;;;5012744;28;20283;-75
2021/12/27 08:49:57;;;;;;;12.35;2.20;;;9.30;54.50;;;;;;5012648;28;20253;-74
2021/12/27 08:52:23;;;;;;;7.85;1.70;;;9.30;55.30;;;;;;5012962;28;20194;-74
2021/12/27 08:54:49;;;;;;;8.43;1.75;;;9.40;54.50;;;;;;5012624;28;20260;-74
2021/12/27 08:57:15;;;;;;;8.52;1.92;;;9.50;54.40;;;;;;5012817;28;20216;-74
2021/12/27 08:59:41;;;;;;;14.00;2.40;;;9.20;56.50;;;;;;5012449;28;20169;-74
2021/12/27 09:02:06;;;;;;;14.93;2.60;;;9.20;57.10;;;;;;5012308;28;20409;-73
2021/12/27 09:04:33;;;;;;;6.07;1.50;;;8.50;61.70;;;;;;5012613;28;20181;-74
2021/12/27 09:07:00;;;;;;;12.70;3.15;;;7.60;68.70;;;;;;5000926;28;20179;-73
2021/12/27 09:09:26;;;;;;;10.15;2.75;;;7.70;68.90;;;;;;4993584;28;20265;-73
2021/12/27 09:11:52;;;;;;;13.48;3.55;;;8.10;67.00;;;;;;4993447;28;20244;-75
2021/12/27 09:14:18;;;;;;;13.32;2.55;;;8.30;64.50;;;;;;4993494;28;20185;-74
2021/12/27 09:16:45;;;;;;;9.90;1.93;;;7.60;69.40;;;;;;4993278;28;20201;-73
2021/12/27 09:19:11;;;;;;;17.08;3.00;;;7.90;68.40;;;;;;4992772;28;20177;-74
2021/12/27 09:21:37;;;;;;;7.23;1.60;;;8.10;67.20;;;;;;4994637;28;20205;-74
2021/12/27 09:24:04;;;;;;;9.68;2.53;;;8.40;65.00;;;;;;4995852;28;20696;-74
2021/12/27 09:26:30;;;;;;;9.75;2.10;;;8.70;61.70;;;;;;4992761;28;20305;-74
2021/12/27 09:28:57;;;;;;;10.13;2.58;;;8.70;61.70;;;;;;5007882;28;20247;-74
2021/12/27 09:31:24;;;;;;;13.15;2.78;;;8.70;63.70;;;;;;4993019;28;20193;-74
2021/12/27 09:33:52;;;;;;;9.98;2.60;;;9.20;61.30;;;;;;4993959;28;20182;-74
2021/12/27 09:36:20;;;;;;;9.85;2.75;;;9.30;60.00;;;;;;4992798;28;20567;-74
2021/12/27 09:38:46;;;;;;;10.70;2.67;;;9.20;61.10;;;;;;4991927;28;20276;-74
2021/12/27 09:41:14;;;;;;;8.20;2.17;;;9.70;61.60;;;;;;4993815;28;20237;-74
2021/12/27 09:43:40;;;;;;;13.77;3.47;;;10.00;58.00;;;;;;4997402;28;20190;-74
2021/12/27 09:46:07;;;;;;;15.25;3.30;;;10.20;56.60;;;;;;4992111;28;20717;-76
2021/12/27 09:48:34;;;;;;;7.90;1.75;;;10.10;58.10;;;;;;4993518;28;20186;-74
2021/12/27 09:51:01;;;;;;;7.78;1.95;;;10.40;59.10;;;;;;4993836;28;20715;-72
2021/12/27 09:53:28;;;;;;;9.10;1.88;;;10.30;59.00;;;;;;4996707;28;20183;-74
2021/12/27 09:55:54;;;;;;;8.70;1.67;;;10.20;60.30;;;;;;4996864;28;20207;-74
2021/12/27 09:58:20;;;;;;;8.80;1.80;;;10.00;61.90;;;;;;4996530;28;21312;-74
2021/12/27 10:00:46;;;;;;;9.40;1.80;;;10.20;61.40;;;;;;4996445;28;20431;-74
2021/12/27 10:03:13;;;;;;;7.65;1.75;;;10.00;61.30;;;;;;4996498;28;20175;-74
2021/12/27 10:05:39;;;;;;;7.70;1.50;;;10.10;61.90;;;;;;4995250;28;20181;-74
2021/12/27 10:08:06;;;;;;;10.07;1.88;;;7.40;58.20;;;;;;4996186;28;20186;-74
2021/12/27 10:10:35;;;;;;;9.68;1.83;;;10.60;58.90;;;;;;4996270;28;20551;-74
2021/12/27 10:13:11;;;;;;;7.93;1.90;;;10.50;58.70;;;;;;4996192;28;20176;-74
2021/12/27 10:15:40;;;;;;;7.15;1.55;;;10.50;58.70;;;;;;4996111;28;20208;-74
2021/12/27 10:18:14;;;;;;;12.65;2.10;;;10.60;58.50;;;;;;4994802;28;20541;-74
2021/12/27 10:20:41;;;;;;;10.07;1.73;;;10.70;58.60;;;;;;4995798;28;20235;-74
2021/12/27 10:23:09;;;;;;;10.35;2.20;;;10.90;57.50;;;;;;4995695;28;20656;-74
2021/12/27 10:25:35;;;;;;;7.00;1.70;;;11.00;57.00;;;;;;4996096;28;20178;-73
2021/12/27 10:28:03;;;;;;;10.27;2.00;;;11.00;56.40;;;;;;4996028;28;20174;-74
2021/12/27 10:30:34;;;;;;;9.13;2.10;;;10.90;57.70;;;;;;4995943;28;20425;-74
2021/12/27 10:33:15;;;;;;;12.00;2.00;;;10.90;56.60;;;;;;4996254;28;20201;-74
2021/12/27 10:35:45;;;;;;;8.67;1.80;;;10.80;57.30;;;;;;4995584;28;20192;-74
2021/12/27 10:38:21;;;;;;;6.18;1.50;;;11.20;54.30;;;;;;4995494;28;20405;-74
2021/12/27 10:41:02;;;;;;;9.53;2.13;;;11.70;53.40;;;;;;4995554;28;20641;-74
2021/12/27 10:43:35;;;;;;;12.53;2.10;;;11.80;52.50;;;;;;4995350;28;20393;-72
2021/12/27 10:46:06;;;;;;;13.43;3.10;;;12.40;50.30;;;;;;4995236;28;20444;-74
2021/12/27 10:48:37;;;;;;;10.67;1.90;;;12.80;47.20;;;;;;4995761;28;20772;-73
2021/12/27 10:51:04;;;;;;;12.77;2.03;;;12.70;46.50;;;;;;4995415;28;20429;-72
2021/12/27 10:54:08;;;;;;;9.30;1.87;;;12.20;48.30;;;;;;4995205;28;20409;-72
2021/12/27 10:56:52;;;;;;;10.10;2.20;;;12.00;49.70;;;;;;4953541;29;20486;-74
2021/12/27 10:59:20;;;;;;;10.90;2.00;;;12.10;50.50;;;;;;4953809;29;20526;-74
2021/12/27 11:01:49;;;;;;;5.40;1.60;;;12.10;50.40;;;;;;4953789;29;20442;-74
2021/12/27 11:04:17;;;;;;;10.60;2.13;;;12.50;47.70;;;;;;4952993;28;20519;-74
2021/12/27 11:06:44;;;;;;;10.50;1.90;;;12.20;48.60;;;;;;4953785;29;20434;-73
2021/12/27 11:09:14;;;;;;;8.33;1.87;;;12.40;48.90;;;;;;4954142;28;20439;-73
2021/12/27 11:11:40;;;;;;;9.50;1.90;;;12.30;49.10;;;;;;4954098;29;20513;-74
2021/12/27 11:14:07;;;;;;;7.80;1.83;;;12.20;50.10;;;;;;4954433;29;20414;-74
2021/12/27 11:16:34;;;;;;;6.13;1.70;;;12.80;47.40;;;;;;4953954;29;20463;-73
2021/12/27 11:19:00;;;;;;;8.23;2.37;;;13.40;46.70;;;;;;4954043;29;20458;-73
2021/12/27 11:21:36;;;;;;;7.80;1.97;;;13.20;47.60;;;;;;4954040;29;20434;-74
2021/12/27 11:24:05;;;;;;;10.17;2.13;;;13.10;46.90;;;;;;4953628;29;20424;-74
2021/12/27 11:26:36;;;;;;;9.00;2.00;;;13.10;46.80;;;;;;4954155;29;20423;-74
2021/12/27 11:29:23;;;;;;;10.63;2.40;;;13.20;45.50;;;;;;4953491;29;20423;-74
2021/12/27 11:31:51;;;;;;;6.87;1.60;;;13.60;46.50;;;;;;4970894;28;20933;-73
2021/12/27 11:34:19;;;;;;;9.70;2.17;;;13.90;44.00;;;;;;5009657;28;20438;-73
2021/12/27 11:36:49;;;;;;;7.77;1.80;;;13.90;44.00;;;;;;5010373;28;20536;-74
2021/12/27 11:39:28;;;;;;;8.30;1.80;;;13.50;44.50;;;;;;4995810;28;20912;-73
2021/12/27 11:42:05;;;;;;;7.53;1.70;;;13.30;45.80;;;;;;4994622;28;20456;-74
2021/12/27 11:44:38;;;;;;;6.70;1.80;;;13.20;46.40;;;;;;4994224;28;20506;-74
2021/12/27 11:47:06;;;;;;;8.20;1.77;;;13.40;46.50;;;;;;4994128;28;20397;-74
2021/12/27 11:49:48;;;;;;;7.20;2.10;;;13.60;45.00;;;;;;4994079;28;20518;-74
2021/12/27 11:52:31;;;;;;;8.53;2.00;;;13.60;45.70;;;;;;4994175;28;20456;-74
2021/12/27 11:55:05;;;;;;;23.00;3.70;;;13.30;45.80;;;;;;4993801;28;20426;-74
2021/12/27 11:57:38;;;;;;;7.60;2.00;;;13.10;46.30;;;;;;4994287;28;21000;-74
2021/12/27 12:00:26;;;;;;;8.40;2.17;;;12.90;47.40;;;;;;4994014;28;20439;-74
2021/12/27 12:02:54;;;;;;;9.33;2.27;;;12.90;46.70;;;;;;4994209;28;20414;-74
2021/12/27 12:05:43;;;;;;;11.37;2.40;;;13.20;45.00;;;;;;4993858;28;20844;-73
2021/12/27 12:08:12;;;;;;;7.77;1.73;;;12.80;46.00;;;;;;4977695;28;20406;-74
2021/12/27 12:10:50;;;;;;;6.63;1.70;;;12.60;47.10;;;;;;4977602;28;20452;-75
2021/12/27 12:13:22;;;;;;;7.57;1.77;;;13.10;45.30;;;;;;4976026;28;20417;-74
2021/12/27 12:16:15;;;;;;;8.73;2.17;;;12.90;45.60;;;;;;4989940;28;20458;-74
2021/12/27 12:19:04;;;;;;;15.50;3.53;;;12.70;48.20;;;;;;4992244;28;20426;-74
2021/12/27 12:21:33;;;;;;;9.13;1.90;;;12.90;47.00;;;;;;4973975;28;20839;-74
2021/12/27 12:24:10;;;;;;;9.77;1.97;;;13.20;44.50;;;;;;4974416;28;20449;-74
2021/12/27 12:27:09;;;;;;;6.87;1.80;;;13.40;44.20;;;;;;4974358;28;20763;-74
2021/12/27 12:29:41;;;;;;;12.23;2.37;;;14.10;43.30;;;;;;4932971;29;20434;-74
2021/12/27 12:32:09;;;;;;;8.67;2.03;;;14.20;41.40;;;;;;4933019;29;20575;-74
2021/12/27 12:34:36;;;;;;;9.47;2.10;;;14.40;42.00;;;;;;4932786;29;20476;-74
2021/12/27 12:37:08;;;;;;;8.30;1.87;;;14.30;41.50;;;;;;4932963;29;20467;-73
2021/12/27 12:39:43;;;;;;;12.23;2.33;;;14.70;40.60;;;;;;4932871;29;20424;-74
2021/12/27 12:42:17;;;;;;;10.90;2.30;;;14.90;37.70;;;;;;4932704;29;20534;-74
2021/12/27 12:44:47;;;;;;;10.37;2.23;;;15.30;38.80;;;;;;4932688;29;20507;-71
2021/12/27 12:47:13;;;;;;;10.07;2.50;;;15.20;37.20;;;;;;4932694;29;20417;-72
2021/12/27 12:49:39;;;;;;;9.20;1.77;;;15.20;35.80;;;;;;4932884;29;20426;-72
2021/12/27 12:52:06;;;;;;;12.63;2.60;;;15.20;36.40;;;;;;4932774;29;20435;-72
2021/12/27 12:54:35;;;;;;;6.80;1.70;;;14.50;38.40;;;;;;4932500;29;20197;-72
2021/12/27 12:57:08;;;;;;;7.80;2.33;;;14.00;40.80;;;;;;4932581;29;21002;-72
2021/12/27 12:59:39;;;;;;;9.40;2.00;;;12.80;47.30;;;;;;4932362;29;20420;-74